Holloway, Louisiana
Current Conditions -  °F | °C
As of 7:53 PM on Sunday 25 Jan 2015 (Local Time) from KESF Reporting Station
Clear Clear  
Wind Chill: 59°   Ceiling: Unl
Heat Index: 59°   Visibility: 10mi
Dew Point: 30°   Wind: 10mph
Humidity: 33%   Direction: 310°NW
Pressure: 29.98"   Gusts: 22mph
Location:  31.3606°N, 92.2142°W
Report Text: KESF 260153Z AUTO 31009G19KT 10SM CLR 15/M01 A2998 RMK AO2 SLP151 T01501011
Loading
Personal Weather Stations






























Interactive Weather Map New forecast layout! Learn more

10-Day Weather Forecast

Advertisements
Track Severe Weather on mobile